Silverthorne, Colorado
Current Conditions -  °F | °C
As of 8:57 AM on Tuesday 21 Oct 2014 (Local Time) from KCCU Reporting Station
Scattered Clouds Scattered Clouds  
Wind Chill: 37°   Ceiling: Unl
Heat Index: 43°   Visibility: 10mi
Dew Point: 30°   Wind: 10mph
Humidity: 61%   Direction: 160°SSE
Pressure: 30.41"   Gusts: NA
Location:  39.65°N, 106.08°W
Report Text: KCCU 211457Z AUTO 16009KT 10SM SCT039 06/M01 A3041 RMK AO2
Loading
Personal Weather Stations






























Interactive Weather Map New forecast layout! Learn more

10-Day Weather Forecast

Advertisements
Track Severe Weather on mobile